createdAt,value
2022-10-01T00:07:40.187Z,15.50
2022-10-01T00:17:45.465Z,15.60
2022-10-01T00:27:49.516Z,15.50
2022-10-01T00:37:54.510Z,15.30
2022-10-01T00:48:00.691Z,15.30
2022-10-01T00:58:07.142Z,15.20
2022-10-01T01:08:11.438Z,15.30
2022-10-01T01:18:23.483Z,15.20
2022-10-01T01:28:31.991Z,15.40
2022-10-01T01:38:41.390Z,15.50
2022-10-01T01:48:49.384Z,15.50
2022-10-01T01:58:54.265Z,15.50
2022-10-01T02:09:04.835Z,15.50
2022-10-01T02:19:17.918Z,15.50
2022-10-01T02:29:25.129Z,15.50
2022-10-01T02:39:31.651Z,15.40
2022-10-01T02:49:37.608Z,15.40
2022-10-01T02:59:41.215Z,15.40
2022-10-01T03:09:46.349Z,15.40
2022-10-01T03:19:50.220Z,15.20
2022-10-01T03:29:55.367Z,15.10
2022-10-01T03:39:59.021Z,15.10
2022-10-01T03:50:04.955Z,15.00
2022-10-01T04:00:10.814Z,15.00
2022-10-01T04:10:15.968Z,15.00
2022-10-01T04:20:19.807Z,14.80
2022-10-01T04:30:25.794Z,14.70
2022-10-01T04:40:29.803Z,14.80
2022-10-01T04:50:34.986Z,14.90
2022-10-01T05:00:38.693Z,15.00
2022-10-01T05:10:44.450Z,14.90
2022-10-01T05:20:48.095Z,14.80
2022-10-01T05:30:53.231Z,14.80
2022-10-01T05:40:56.877Z,14.80
2022-10-01T05:51:03.358Z,14.70
2022-10-01T06:01:07.100Z,14.70
2022-10-01T06:11:12.529Z,14.90
2022-10-01T06:21:16.510Z,14.80
2022-10-01T06:31:22.569Z,14.80
2022-10-01T06:41:27.468Z,15.10
2022-10-01T06:51:51.000Z,15.30
2022-10-01T07:01:56.437Z,15.70
2022-10-01T07:12:01.932Z,16.10
2022-10-01T07:22:05.594Z,16.40
2022-10-01T07:32:11.481Z,16.60
2022-10-01T07:42:15.357Z,17.00
2022-10-01T07:52:20.962Z,17.00
2022-10-01T08:02:24.744Z,17.40
2022-10-01T08:12:30.632Z,17.80
2022-10-01T08:22:39.794Z,18.00
2022-10-01T08:32:46.909Z,18.50
2022-10-01T08:42:55.239Z,19.00
2022-10-01T08:53:03.074Z,19.40
2022-10-01T09:03:09.176Z,19.90
2022-10-01T09:13:50.203Z,20.60
2022-10-01T09:24:04.664Z,21.00
2022-10-01T09:34:14.853Z,21.50
2022-10-01T09:44:29.046Z,21.50
2022-10-01T09:54:43.311Z,22.30
2022-10-01T10:04:47.858Z,22.30
2022-10-01T10:14:52.991Z,22.60
2022-10-01T10:24:58.822Z,23.00
2022-10-01T10:35:10.851Z,23.20
2022-10-01T10:45:20.620Z,22.50
2022-10-01T10:55:30.443Z,24.10
2022-10-01T11:05:41.680Z,25.10
2022-10-01T11:15:58.686Z,25.00
2022-10-01T11:26:14.028Z,24.90
2022-10-01T11:36:27.445Z,25.20
2022-10-01T11:46:39.666Z,25.40
2022-10-01T11:57:06.547Z,25.40
2022-10-01T12:07:16.690Z,26.10
2022-10-01T12:17:26.521Z,26.30
2022-10-01T12:27:44.535Z,26.40
2022-10-01T12:38:04.874Z,25.70
2022-10-01T12:48:17.243Z,25.60
2022-10-01T12:58:39.309Z,26.10
2022-10-01T13:08:52.952Z,26.60
2022-10-01T13:19:05.524Z,27.50
2022-10-01T13:29:19.957Z,27.50
2022-10-01T13:39:28.976Z,27.60
2022-10-01T13:49:35.068Z,27.50
2022-10-01T13:59:40.296Z,29.60
2022-10-01T14:09:46.807Z,30.10
2022-10-01T14:19:53.722Z,30.00
2022-10-01T14:30:07.030Z,29.00
2022-10-01T14:40:20.029Z,29.80
2022-10-01T14:50:24.134Z,30.60
2022-10-01T15:00:32.431Z,30.10
2022-10-01T15:10:36.213Z,29.60
2022-10-01T15:20:55.587Z,30.00
2022-10-01T15:31:01.211Z,29.90
2022-10-01T15:41:30.568Z,29.10
2022-10-01T15:51:31.968Z,28.60
2022-10-01T16:01:41.657Z,26.80
2022-10-01T16:11:57.232Z,24.90
2022-10-01T16:22:22.913Z,24.00
2022-10-01T16:32:26.514Z,23.80
2022-10-01T16:42:33.440Z,23.60
2022-10-01T16:52:37.921Z,23.70
2022-10-01T17:02:42.951Z,23.60
2022-10-01T17:12:48.387Z,23.10
2022-10-01T17:22:54.089Z,23.00
2022-10-01T17:32:58.360Z,22.90
2022-10-01T17:43:03.519Z,22.80
2022-10-01T17:53:07.256Z,22.60
2022-10-01T18:03:12.450Z,22.40
2022-10-01T18:13:16.129Z,22.20
2022-10-01T18:23:21.308Z,21.80
2022-10-01T18:33:24.975Z,21.40
2022-10-01T18:43:35.651Z,21.10
2022-10-01T18:54:03.700Z,20.70
2022-10-01T19:04:28.366Z,20.30
2022-10-01T19:14:49.618Z,20.00
2022-10-01T19:25:07.514Z,19.90
2022-10-01T19:35:20.039Z,19.60
2022-10-01T19:45:30.163Z,19.20
2022-10-01T19:55:39.002Z,19.00
2022-10-01T20:05:47.485Z,19.00
2022-10-01T20:16:01.708Z,19.00
2022-10-01T20:26:15.416Z,19.00
2022-10-01T20:36:25.110Z,18.80
2022-10-01T20:46:36.674Z,19.00
2022-10-01T20:56:44.681Z,18.90
2022-10-01T21:06:53.492Z,18.90
2022-10-01T21:17:09.939Z,19.20
2022-10-01T21:27:29.322Z,19.30
2022-10-01T21:37:37.830Z,19.50
2022-10-01T21:47:57.329Z,19.50
2022-10-01T21:58:25.031Z,19.50
2022-10-01T22:08:49.692Z,19.60
2022-10-01T22:18:57.306Z,19.20
2022-10-01T22:29:05.087Z,18.90
2022-10-01T22:39:14.921Z,18.90
2022-10-01T22:49:34.873Z,19.00
2022-10-01T22:59:46.353Z,19.10
2022-10-01T23:09:55.454Z,19.00
2022-10-01T23:20:11.072Z,19.00
2022-10-01T23:30:19.010Z,19.00
2022-10-01T23:40:24.885Z,18.80
2022-10-01T23:50:34.391Z,18.60
